Ballston Spa, New York
Current Conditions -  °F | °C
As of 3:51 AM on Thursday 18 Dec 2014 (Local Time) from KALB Reporting Station
Light Snow Light Snow  
Wind Chill: 27°   Ceiling: 2000
Heat Index: 35°   Visibility: 5mi
Dew Point: 29°   Wind: 10mph
Humidity: 78%   Direction: 290°WNW
Pressure: 29.85"   Gusts: 20mph
Location:  43°N, 73.85°W
Report Text: KALB 180851Z 29009G17KT 5SM -SN BKN020 BKN026 OVC038 02/M02 A2985 RMK AO2 SLP110 P0000 60000 T00171017 50005
Loading
Personal Weather Stations






























Interactive Weather Map New forecast layout! Learn more

10-Day Weather Forecast

Advertisements
Track Severe Weather on mobile